Time;durP1;ratioP1;P1;durP2;ratioP2;P2;SDS_P1;SDS_P2;PMS_P1;PMS_P2;Temp;Humidity;BMP_temperature;BMP_pressure;BME280_temperature;BME280_humidity;BME280_pressure;Samples;Min_cycle;Max_cycle;Signal;HPM_P1;HPM_P2
2024/01/03 00:02:00;;;;;;;11.83;2.77;;;;;;;;;;5028708;28;20413;-67
2024/01/03 00:04:27;;;;;;;6.10;1.27;;;;;;;;;;5028360;28;20049;-67
2024/01/03 00:06:53;;;;;;;8.33;2.23;;;;;;;;;;5028563;28;20045;-67
2024/01/03 00:09:19;;;;;;;12.10;1.97;;;;;;;;;;5028769;28;20184;-66
2024/01/03 00:11:45;;;;;;;11.57;1.60;;;;;;;;;;5028162;28;20374;-67
2024/01/03 00:14:22;;;;;;;17.23;2.13;;;;;;;;;;5028518;28;20046;-67
2024/01/03 00:16:48;;;;;;;11.57;2.00;;;;;;;;;;5028676;28;20128;-67
2024/01/03 00:19:16;;;;;;;15.50;2.20;;;;;;;;;;5026945;28;20033;-66
2024/01/03 00:21:42;;;;;;;10.93;2.03;;;;;;;;;;5028151;28;20061;-67
2024/01/03 00:24:11;;;;;;;9.90;2.30;;;;;;;;;;5028941;28;20128;-67
2024/01/03 00:26:39;;;;;;;12.03;2.00;;;;;;;;;;5027498;28;20053;-66
2024/01/03 00:29:15;;;;;;;8.57;1.43;;;;;;;;;;5028386;28;20056;-66
2024/01/03 00:31:42;;;;;;;10.27;1.93;;;;;;;;;;5035421;28;20067;-66
2024/01/03 00:34:26;;;;;;;19.67;3.27;;;;;;;;;;5021095;28;20493;-66
2024/01/03 00:36:52;;;;;;;10.43;1.77;;;;;;;;;;5028127;28;20650;-66
2024/01/03 00:39:21;;;;;;;14.47;2.77;;;;;;;;;;5028150;28;20050;-67
2024/01/03 00:41:47;;;;;;;15.23;3.17;;;;;;;;;;5026646;28;20045;-66
2024/01/03 00:44:13;;;;;;;19.20;3.77;;;;;;;;;;5028023;28;20061;-66
2024/01/03 00:46:39;;;;;;;13.07;2.87;;;;;;;;;;5027518;28;20054;-66
2024/01/03 00:49:05;;;;;;;11.63;2.53;;;;;;;;;;5029084;28;20056;-67
2024/01/03 00:51:31;;;;;;;11.30;2.27;;;;;;;;;;5028052;28;20041;-66
2024/01/03 00:53:57;;;;;;;20.53;3.30;;;;;;;;;;5028015;28;20037;-67
2024/01/03 00:56:23;;;;;;;21.13;4.13;;;;;;;;;;5027646;28;20140;-67
2024/01/03 00:58:49;;;;;;;10.57;2.03;;;;;;;;;;5028311;28;20121;-66
2024/01/03 01:01:15;;;;;;;9.80;2.40;;;;;;;;;;5027185;28;20045;-66
2024/01/03 01:03:41;;;;;;;13.97;2.40;;;;;;;;;;5028347;28;20088;-67
2024/01/03 01:06:07;;;;;;;9.90;2.00;;;;;;;;;;5032229;28;20084;-66
2024/01/03 01:08:34;;;;;;;19.40;3.23;;;;;;;;;;5027565;28;20053;-66
2024/01/03 01:10:59;;;;;;;16.30;2.17;;;;;;;;;;5028343;28;20033;-67
2024/01/03 01:13:25;;;;;;;11.23;2.40;;;;;;;;;;5027176;28;20110;-67
2024/01/03 01:15:51;;;;;;;15.63;2.60;;;;;;;;;;5028172;28;20491;-66
2024/01/03 01:18:18;;;;;;;21.23;2.97;;;;;;;;;;5027682;28;20115;-67
2024/01/03 01:20:44;;;;;;;13.63;2.20;;;;;;;;;;5027802;28;20060;-67
2024/01/03 01:23:10;;;;;;;16.60;2.17;;;;;;;;;;5034575;28;20045;-66
2024/01/03 01:25:35;;;;;;;18.40;3.03;;;;;;;;;;5027185;28;20132;-67
2024/01/03 01:28:02;;;;;;;18.07;2.50;;;;;;;;;;5027639;28;20559;-66
2024/01/03 01:30:28;;;;;;;10.37;2.10;;;;;;;;;;5027460;28;20038;-66
2024/01/03 01:32:54;;;;;;;10.57;2.47;;;;;;;;;;5027617;28;20049;-67
2024/01/03 01:35:20;;;;;;;12.00;2.60;;;;;;;;;;5028085;28;20045;-66
2024/01/03 01:37:46;;;;;;;17.43;2.70;;;;;;;;;;5025973;28;20371;-67
2024/01/03 01:40:12;;;;;;;11.93;2.43;;;;;;;;;;5035573;28;20044;-67
2024/01/03 01:42:42;;;;;;;11.50;2.30;;;;;;;;;;5028085;28;20045;-67
2024/01/03 01:45:09;;;;;;;20.97;4.07;;;;;;;;;;5026959;28;20145;-66
2024/01/03 01:47:35;;;;;;;16.53;2.90;;;;;;;;;;5027465;28;20048;-67
2024/01/03 01:50:01;;;;;;;9.57;1.50;;;;;;;;;;5027285;28;20448;-67
2024/01/03 01:52:27;;;;;;;6.13;1.30;;;;;;;;;;5027428;28;20399;-66
2024/01/03 01:54:53;;;;;;;6.33;1.40;;;;;;;;;;5028735;28;20480;-67
2024/01/03 01:57:19;;;;;;;6.40;1.33;;;;;;;;;;5028850;28;20049;-67
2024/01/03 01:59:46;;;;;;;10.47;1.83;;;;;;;;;;5031022;28;20041;-67
2024/01/03 02:02:12;;;;;;;9.83;1.43;;;;;;;;;;5030670;28;20377;-67
2024/01/03 02:04:38;;;;;;;13.87;1.97;;;;;;;;;;5030931;28;20614;-66
2024/01/03 02:07:05;;;;;;;7.90;1.50;;;;;;;;;;5030589;28;20050;-67
2024/01/03 02:09:32;;;;;;;13.43;2.07;;;;;;;;;;5031152;28;20045;-67
2024/01/03 02:11:58;;;;;;;11.70;2.27;;;;;;;;;;5031478;28;20045;-67
2024/01/03 02:14:24;;;;;;;12.53;2.33;;;;;;;;;;5031145;28;20041;-67
2024/01/03 02:16:50;;;;;;;15.17;2.60;;;;;;;;;;5030434;28;20043;-67
2024/01/03 02:19:16;;;;;;;8.97;1.80;;;;;;;;;;5030462;28;20081;-67
2024/01/03 02:21:42;;;;;;;9.43;1.83;;;;;;;;;;5030904;28;20496;-67
2024/01/03 02:24:08;;;;;;;15.23;1.87;;;;;;;;;;5030282;28;20531;-67
2024/01/03 02:26:34;;;;;;;14.43;2.53;;;;;;;;;;5030608;28;20049;-67
2024/01/03 02:29:00;;;;;;;8.60;1.47;;;;;;;;;;5030482;28;20074;-67
2024/01/03 02:31:26;;;;;;;7.50;1.50;;;;;;;;;;5028947;28;20045;-67
2024/01/03 02:33:52;;;;;;;9.93;2.27;;;;;;;;;;5029429;28;20045;-67
2024/01/03 02:36:18;;;;;;;10.50;2.17;;;;;;;;;;5029680;28;20045;-67
2024/01/03 02:38:47;;;;;;;13.67;2.63;;;;;;;;;;5030301;28;20105;-67
2024/01/03 02:41:13;;;;;;;12.90;3.40;;;;;;;;;;5030182;28;20381;-67
2024/01/03 02:43:39;;;;;;;11.70;3.50;;;;;;;;;;5029991;28;20487;-67
2024/01/03 02:46:05;;;;;;;13.20;3.20;;;;;;;;;;5033190;28;20053;-67
2024/01/03 02:48:31;;;;;;;16.30;3.30;;;;;;;;;;5030322;28;20100;-67
2024/01/03 02:50:57;;;;;;;19.83;3.33;;;;;;;;;;5030122;28;20045;-67
2024/01/03 02:53:23;;;;;;;19.90;4.03;;;;;;;;;;5030461;28;20049;-66
2024/01/03 02:55:49;;;;;;;15.60;3.17;;;;;;;;;;5030219;28;20268;-67
2024/01/03 02:58:15;;;;;;;15.47;2.60;;;;;;;;;;5029773;28;20056;-67
2024/01/03 03:00:41;;;;;;;13.67;3.20;;;;;;;;;;5028986;28;20479;-68
2024/01/03 03:03:07;;;;;;;12.23;2.97;;;;;;;;;;5030814;28;20048;-67
2024/01/03 03:05:33;;;;;;;20.00;3.50;;;;;;;;;;5030190;28;20053;-67
2024/01/03 03:07:59;;;;;;;25.27;4.00;;;;;;;;;;5028972;28;20575;-67
2024/01/03 03:10:25;;;;;;;27.53;4.33;;;;;;;;;;5029422;28;20049;-67
2024/01/03 03:12:51;;;;;;;29.40;5.73;;;;;;;;;;5029787;28;20037;-67
2024/01/03 03:15:17;;;;;;;31.07;4.27;;;;;;;;;;5029802;28;20041;-67
2024/01/03 03:17:43;;;;;;;27.90;5.13;;;;;;;;;;5029574;28;20444;-67
2024/01/03 03:20:10;;;;;;;31.97;5.23;;;;;;;;;;5032528;28;20647;-66
2024/01/03 03:22:36;;;;;;;28.17;4.90;;;;;;;;;;5031176;28;20415;-67
2024/01/03 03:25:02;;;;;;;30.97;4.73;;;;;;;;;;5029589;28;20514;-67
2024/01/03 03:27:28;;;;;;;28.57;5.40;;;;;;;;;;5029602;28;20050;-66
2024/01/03 03:29:54;;;;;;;33.90;5.17;;;;;;;;;;5029059;28;20084;-67
2024/01/03 03:32:20;;;;;;;31.93;4.73;;;;;;;;;;5029516;28;20045;-67
2024/01/03 03:34:46;;;;;;;26.07;4.70;;;;;;;;;;5028900;28;20514;-66
2024/01/03 03:37:12;;;;;;;25.67;4.37;;;;;;;;;;5025985;28;20128;-67
2024/01/03 03:39:39;;;;;;;30.43;4.90;;;;;;;;;;5029216;28;20398;-66
2024/01/03 03:42:05;;;;;;;23.90;4.10;;;;;;;;;;5028881;28;20099;-66
2024/01/03 03:44:31;;;;;;;27.50;4.00;;;;;;;;;;5029209;28;20065;-66
2024/01/03 03:46:57;;;;;;;18.63;5.20;;;;;;;;;;5028696;28;20064;-66
2024/01/03 03:49:23;;;;;;;29.87;5.53;;;;;;;;;;5028465;28;20053;-66
2024/01/03 03:51:49;;;;;;;26.47;6.63;;;;;;;;;;5027276;28;20037;-66
2024/01/03 03:54:15;;;;;;;30.43;4.60;;;;;;;;;;5028334;28;20045;-66
2024/01/03 03:56:41;;;;;;;27.47;5.00;;;;;;;;;;5027851;28;20049;-66
2024/01/03 03:59:07;;;;;;;27.67;4.70;;;;;;;;;;5027916;28;20037;-65
2024/01/03 04:01:33;;;;;;;33.57;4.50;;;;;;;;;;5028299;28;20040;-66
2024/01/03 04:03:59;;;;;;;20.73;3.93;;;;;;;;;;5026498;28;20071;-66
2024/01/03 04:06:25;;;;;;;25.80;4.10;;;;;;;;;;5028808;28;20053;-66
2024/01/03 04:08:51;;;;;;;24.23;4.40;;;;;;;;;;5027505;28;20049;-65
2024/01/03 04:11:17;;;;;;;26.83;4.00;;;;;;;;;;5026574;28;20056;-66
2024/01/03 04:13:43;;;;;;;26.17;4.70;;;;;;;;;;5027387;28;20135;-66
2024/01/03 04:16:10;;;;;;;22.83;4.07;;;;;;;;;;5027542;28;20134;-65
2024/01/03 04:18:36;;;;;;;18.73;3.60;;;;;;;;;;5027047;28;20068;-66
2024/01/03 04:21:06;;;;;;;25.43;4.60;;;;;;;;;;5026878;28;20041;-66
2024/01/03 04:23:33;;;;;;;27.63;5.83;;;;;;;;;;5027844;28;20046;-66
2024/01/03 04:25:59;;;;;;;23.37;5.23;;;;;;;;;;5020027;28;20061;-66
2024/01/03 04:28:26;;;;;;;25.10;4.63;;;;;;;;;;5027735;28;20041;-66
2024/01/03 04:30:52;;;;;;;28.30;4.87;;;;;;;;;;5027936;28;20041;-66
2024/01/03 04:33:18;;;;;;;30.53;4.97;;;;;;;;;;5026773;28;20073;-66
2024/01/03 04:35:44;;;;;;;34.60;4.67;;;;;;;;;;5026903;28;20087;-67
2024/01/03 04:38:10;;;;;;;27.47;5.17;;;;;;;;;;5026438;28;20409;-65
2024/01/03 04:40:37;;;;;;;29.23;4.27;;;;;;;;;;5022159;28;20518;-65
2024/01/03 04:43:03;;;;;;;30.17;4.50;;;;;;;;;;5027294;28;20068;-66
2024/01/03 04:45:29;;;;;;;27.23;5.37;;;;;;;;;;5026492;28;20064;-66
2024/01/03 04:47:55;;;;;;;31.47;5.33;;;;;;;;;;5028823;28;20041;-66
2024/01/03 04:50:21;;;;;;;27.33;5.13;;;;;;;;;;5027985;28;20127;-66
2024/01/03 04:52:47;;;;;;;29.43;6.27;;;;;;;;;;5025911;28;20038;-65
2024/01/03 04:55:14;;;;;;;31.67;6.27;;;;;;;;;;5028153;28;20502;-66
2024/01/03 04:57:40;;;;;;;30.40;3.93;;;;;;;;;;5028167;28;20045;-66
2024/01/03 05:00:06;;;;;;;39.17;5.30;;;;;;;;;;5026993;28;20045;-65
2024/01/03 05:02:32;;;;;;;29.83;5.50;;;;;;;;;;5032003;28;20111;-65
2024/01/03 05:04:58;;;;;;;34.47;5.00;;;;;;;;;;5027381;28;20407;-65
2024/01/03 05:07:24;;;;;;;31.03;4.67;;;;;;;;;;5027217;28;20427;-66
2024/01/03 05:09:50;;;;;;;25.57;4.73;;;;;;;;;;5028147;28;20053;-66
2024/01/03 05:12:16;;;;;;;27.53;4.73;;;;;;;;;;5027431;28;20064;-66
2024/01/03 05:14:42;;;;;;;28.20;6.27;;;;;;;;;;5027317;28;20385;-66
2024/01/03 05:17:08;;;;;;;23.80;4.40;;;;;;;;;;5027910;28;20132;-66
2024/01/03 05:19:34;;;;;;;31.40;5.17;;;;;;;;;;5032465;28;20053;-66
2024/01/03 05:22:00;;;;;;;28.47;4.00;;;;;;;;;;5027547;28;20041;-66
2024/01/03 05:24:27;;;;;;;32.67;4.53;;;;;;;;;;5027891;28;20092;-65
2024/01/03 05:26:53;;;;;;;28.67;4.30;;;;;;;;;;5027482;28;20041;-66
2024/01/03 05:29:19;;;;;;;36.73;5.37;;;;;;;;;;5028023;28;20061;-66
2024/01/03 05:31:45;;;;;;;28.10;4.30;;;;;;;;;;5028788;28;20111;-65
2024/01/03 05:34:12;;;;;;;25.67;4.40;;;;;;;;;;5031637;28;20057;-65
2024/01/03 05:36:38;;;;;;;30.33;4.27;;;;;;;;;;5037365;28;20045;-65
2024/01/03 05:39:04;;;;;;;27.97;4.90;;;;;;;;;;5030945;28;20037;-65
2024/01/03 05:41:30;;;;;;;27.53;4.90;;;;;;;;;;5031228;28;20053;-65
2024/01/03 05:43:56;;;;;;;27.33;4.53;;;;;;;;;;5031705;28;20071;-65
2024/01/03 05:46:22;;;;;;;33.00;5.60;;;;;;;;;;5031233;28;20049;-65
2024/01/03 05:48:48;;;;;;;17.17;4.27;;;;;;;;;;5031229;28;20103;-65
2024/01/03 05:51:16;;;;;;;35.27;6.13;;;;;;;;;;5031511;28;20073;-65
2024/01/03 05:53:47;;;;;;;20.17;4.47;;;;;;;;;;5029675;28;20463;-65
2024/01/03 05:56:14;;;;;;;17.27;4.07;;;;;;;;;;5029435;28;20092;-65
2024/01/03 05:58:40;;;;;;;19.53;3.33;;;;;;;;;;5030012;28;20132;-64
2024/01/03 06:01:06;;;;;;;18.47;4.40;;;;;;;;;;5029928;28;20045;-65
2024/01/03 06:03:32;;;;;;;30.80;4.73;;;;;;;;;;5030838;28;20115;-65
2024/01/03 06:05:58;;;;;;;19.60;3.77;;;;;;;;;;5029152;28;20092;-65
2024/01/03 06:08:24;;;;;;;22.23;2.97;;;;;;;;;;5030102;28;20459;-65
2024/01/03 06:10:50;;;;;;;23.37;4.03;;;;;;;;;;5037979;28;20131;-65
2024/01/03 06:13:16;;;;;;;18.57;4.17;;;;;;;;;;5030164;28;20042;-66
2024/01/03 06:15:42;;;;;;;26.27;4.23;;;;;;;;;;5030663;28;20490;-65
2024/01/03 06:18:08;;;;;;;20.63;5.40;;;;;;;;;;5030860;28;20136;-65
2024/01/03 06:20:34;;;;;;;18.73;3.80;;;;;;;;;;5030751;28;20128;-65
2024/01/03 06:23:00;;;;;;;23.27;3.97;;;;;;;;;;5030327;28;20042;-65
2024/01/03 06:25:26;;;;;;;22.73;5.30;;;;;;;;;;5030708;28;20049;-65
2024/01/03 06:27:53;;;;;;;19.70;3.67;;;;;;;;;;5030413;28;20041;-66
2024/01/03 06:30:19;;;;;;;23.17;4.50;;;;;;;;;;5033705;28;20087;-65
2024/01/03 06:32:45;;;;;;;19.37;4.37;;;;;;;;;;5028751;28;20133;-65
2024/01/03 06:35:11;;;;;;;22.77;3.80;;;;;;;;;;5029999;28;20608;-65
2024/01/03 06:37:37;;;;;;;23.60;4.50;;;;;;;;;;5030596;28;20049;-65
2024/01/03 06:40:03;;;;;;;27.70;3.63;;;;;;;;;;5030724;28;20045;-65
2024/01/03 06:42:29;;;;;;;27.40;4.60;;;;;;;;;;5029768;28;20053;-65
2024/01/03 06:44:55;;;;;;;19.83;4.13;;;;;;;;;;5030162;28;20529;-64
2024/01/03 06:47:21;;;;;;;23.07;4.23;;;;;;;;;;5030849;28;20054;-66
2024/01/03 06:49:47;;;;;;;21.13;4.20;;;;;;;;;;5030664;28;20037;-66
2024/01/03 06:52:13;;;;;;;18.83;5.50;;;;;;;;;;5030122;28;20470;-65
2024/01/03 06:54:39;;;;;;;21.70;4.40;;;;;;;;;;5030256;28;20069;-65
2024/01/03 06:57:05;;;;;;;27.43;5.43;;;;;;;;;;5029669;28;20041;-65
2024/01/03 06:59:38;;;;;;;27.80;4.27;;;;;;;;;;5029871;28;20446;-65
2024/01/03 07:02:04;;;;;;;31.02;6.32;;;;;;;;;;5034302;28;20048;-65
2024/01/03 07:04:30;;;;;;;25.60;3.93;;;;;;;;;;5029686;28;20045;-65
2024/01/03 07:06:57;;;;;;;40.50;5.90;;;;;;;;;;5028402;28;20038;-65
2024/01/03 07:09:23;;;;;;;26.27;4.93;;;;;;;;;;5030024;28;20090;-65
2024/01/03 07:11:49;;;;;;;23.30;4.63;;;;;;;;;;5029935;28;20124;-65
2024/01/03 07:14:15;;;;;;;22.23;4.23;;;;;;;;;;5028071;28;20128;-65
2024/01/03 07:16:41;;;;;;;23.53;5.13;;;;;;;;;;5029472;28;20033;-65
2024/01/03 07:19:07;;;;;;;26.30;4.90;;;;;;;;;;5030358;28;20495;-65
2024/01/03 07:21:33;;;;;;;17.07;4.13;;;;;;;;;;5029464;28;20041;-65
2024/01/03 07:23:59;;;;;;;31.33;5.67;;;;;;;;;;5029447;28;20038;-65
2024/01/03 07:26:25;;;;;;;27.33;4.33;;;;;;;;;;5029308;28;20038;-65
2024/01/03 07:28:51;;;;;;;19.83;4.13;;;;;;;;;;5031069;28;20519;-65
2024/01/03 07:31:17;;;;;;;29.83;5.93;;;;;;;;;;5027820;28;20057;-66
2024/01/03 07:33:43;;;;;;;16.10;3.40;;;;;;;;;;5028802;28;20048;-65
2024/01/03 07:36:09;;;;;;;19.53;3.47;;;;;;;;;;5028215;28;20071;-65
2024/01/03 07:38:35;;;;;;;30.43;5.30;;;;;;;;;;5027896;28;20414;-65
2024/01/03 07:41:01;;;;;;;25.13;3.80;;;;;;;;;;5028564;28;20051;-65
2024/01/03 07:43:27;;;;;;;38.73;5.47;;;;;;;;;;5028794;28;20048;-65
2024/01/03 07:45:53;;;;;;;29.57;5.10;;;;;;;;;;5027880;28;20049;-65
2024/01/03 07:48:19;;;;;;;22.20;4.10;;;;;;;;;;5029148;28;20045;-65
2024/01/03 07:50:45;;;;;;;35.37;6.20;;;;;;;;;;5026350;28;20128;-65
2024/01/03 07:53:11;;;;;;;27.67;4.27;;;;;;;;;;5027756;28;20518;-65
2024/01/03 07:55:37;;;;;;;31.57;4.73;;;;;;;;;;5028780;28;20096;-65
2024/01/03 07:58:03;;;;;;;29.80;4.57;;;;;;;;;;5029208;28;20495;-65
2024/01/03 08:00:30;;;;;;;28.60;6.93;;;;;;;;;;5028783;28;20045;-65
2024/01/03 08:02:56;;;;;;;32.97;5.13;;;;;;;;;;5029430;28;20041;-65
2024/01/03 08:05:22;;;;;;;23.00;5.07;;;;;;;;;;5028399;28;20092;-65
2024/01/03 08:07:49;;;;;;;23.53;4.47;;;;;;;;;;5027877;28;20073;-65
2024/01/03 08:10:15;;;;;;;28.50;4.60;;;;;;;;;;5029187;28;20088;-65
2024/01/03 08:12:41;;;;;;;24.70;4.80;;;;;;;;;;5029551;28;20064;-65
2024/01/03 08:15:08;;;;;;;22.93;3.97;;;;;;;;;;5028659;28;20045;-65
2024/01/03 08:17:34;;;;;;;16.30;4.17;;;;;;;;;;5028489;28;20042;-65
2024/01/03 08:20:00;;;;;;;23.10;3.87;;;;;;;;;;5028224;28;20057;-65
2024/01/03 08:22:26;;;;;;;21.40;4.20;;;;;;;;;;5028767;28;20046;-65
2024/01/03 08:24:52;;;;;;;20.43;3.73;;;;;;;;;;5028318;28;20037;-65
2024/01/03 08:27:18;;;;;;;21.23;3.93;;;;;;;;;;5032506;28;20061;-65
2024/01/03 08:29:45;;;;;;;24.40;4.67;;;;;;;;;;5027872;28;20384;-64
2024/01/03 08:32:11;;;;;;;26.10;4.33;;;;;;;;;;5028170;28;20099;-65
2024/01/03 08:34:37;;;;;;;26.30;4.97;;;;;;;;;;5028330;28;20053;-65
2024/01/03 08:37:03;;;;;;;20.87;4.13;;;;;;;;;;5027592;28;20057;-65
2024/01/03 08:39:29;;;;;;;37.33;5.63;;;;;;;;;;5026727;28;20147;-65
2024/01/03 08:41:55;;;;;;;34.07;5.00;;;;;;;;;;5027908;28;20037;-65
2024/01/03 08:44:21;;;;;;;32.63;5.50;;;;;;;;;;5033013;28;20057;-64
2024/01/03 08:46:48;;;;;;;27.83;4.23;;;;;;;;;;5026279;28;20049;-65
2024/01/03 08:49:14;;;;;;;25.20;4.63;;;;;;;;;;5026785;28;20099;-65
2024/01/03 08:51:44;;;;;;;24.43;4.27;;;;;;;;;;5027844;28;20041;-65
2024/01/03 08:54:12;;;;;;;27.20;5.10;;;;;;;;;;5027691;28;20049;-65
2024/01/03 08:56:39;;;;;;;26.03;5.43;;;;;;;;;;5026900;28;20041;-65
2024/01/03 08:59:05;;;;;;;24.13;4.50;;;;;;;;;;5025686;28;20068;-64
2024/01/03 09:01:34;;;;;;;23.70;5.13;;;;;;;;;;5026564;28;20041;-65
2024/01/03 09:04:00;;;;;;;23.63;6.30;;;;;;;;;;5027241;28;20077;-64
2024/01/03 09:06:26;;;;;;;20.63;4.07;;;;;;;;;;5028913;28;20046;-64
2024/01/03 09:08:54;;;;;;;27.03;4.30;;;;;;;;;;5033282;28;20128;-64
2024/01/03 09:11:23;;;;;;;24.33;4.20;;;;;;;;;;5032449;28;20052;-64
2024/01/03 09:13:49;;;;;;;20.23;4.33;;;;;;;;;;5034201;28;20049;-64
2024/01/03 09:16:19;;;;;;;26.77;4.37;;;;;;;;;;5034502;28;20049;-64
2024/01/03 09:18:46;;;;;;;21.77;4.17;;;;;;;;;;5040978;28;20095;-65
2024/01/03 09:21:12;;;;;;;25.00;4.47;;;;;;;;;;5033559;28;20060;-64
2024/01/03 09:23:38;;;;;;;20.43;3.53;;;;;;;;;;5033943;28;20260;-64
2024/01/03 09:26:05;;;;;;;26.60;4.10;;;;;;;;;;5034314;28;20495;-64
2024/01/03 09:28:31;;;;;;;16.27;3.43;;;;;;;;;;5033524;28;20628;-64
2024/01/03 09:30:57;;;;;;;22.63;3.20;;;;;;;;;;5034103;28;20463;-64
2024/01/03 09:33:24;;;;;;;14.93;3.30;;;;;;;;;;5034608;28;20048;-64
2024/01/03 09:35:50;;;;;;;19.00;3.63;;;;;;;;;;5033676;28;20038;-63
2024/01/03 09:38:16;;;;;;;20.33;3.87;;;;;;;;;;5034827;28;20047;-64
2024/01/03 09:40:42;;;;;;;13.80;2.90;;;;;;;;;;5031504;28;20037;-64
2024/01/03 09:43:12;;;;;;;16.53;4.43;;;;;;;;;;5034648;28;20041;-63
2024/01/03 09:45:38;;;;;;;18.47;4.93;;;;;;;;;;5029205;28;20053;-64
2024/01/03 09:48:05;;;;;;;15.10;3.10;;;;;;;;;;5032757;28;20128;-65
2024/01/03 09:50:31;;;;;;;18.80;3.97;;;;;;;;;;5033667;28;20371;-65
2024/01/03 09:52:58;;;;;;;15.70;2.97;;;;;;;;;;5032937;28;20563;-65
2024/01/03 09:55:27;;;;;;;19.60;4.60;;;;;;;;;;5032929;28;20140;-65
2024/01/03 09:57:54;;;;;;;17.77;3.97;;;;;;;;;;5032751;28;20052;-65
2024/01/03 10:00:20;;;;;;;17.67;3.60;;;;;;;;;;5032828;28;20080;-65
2024/01/03 10:02:47;;;;;;;15.30;3.37;;;;;;;;;;5033159;28;20049;-64
2024/01/03 10:05:20;;;;;;;19.80;3.80;;;;;;;;;;5032350;28;20053;-65
2024/01/03 10:07:47;;;;;;;17.10;3.88;;;;;;;;;;5033950;28;20053;-65
2024/01/03 10:10:14;;;;;;;19.50;4.30;;;;;;;;;;5031406;28;20401;-65
2024/01/03 10:12:40;;;;;;;18.93;3.93;;;;;;;;;;5032906;28;20163;-64
2024/01/03 10:15:14;;;;;;;28.27;3.90;;;;;;;;;;5032567;28;20073;-64
2024/01/03 10:17:42;;;;;;;22.17;4.87;;;;;;;;;;5029831;28;20065;-64
2024/01/03 10:20:35;;;;;;;20.80;4.03;;;;;;;;;;5028870;28;20057;-63
2024/01/03 10:23:04;;;;;;;20.63;4.67;;;;;;;;;;5027846;28;20132;-64
2024/01/03 10:25:30;;;;;;;23.93;5.20;;;;;;;;;;5027088;28;20523;-64
2024/01/03 10:28:03;;;;;;;24.73;4.10;;;;;;;;;;5026085;28;20050;-63
2024/01/03 10:30:30;;;;;;;26.05;3.83;;;;;;;;;;5024458;28;20045;-63
2024/01/03 10:33:03;;;;;;;23.83;4.10;;;;;;;;;;5028898;28;20499;-63
2024/01/03 10:35:29;;;;;;;26.05;3.72;;;;;;;;;;5029506;28;20046;-63
2024/01/03 10:37:56;;;;;;;26.83;5.20;;;;;;;;;;5029656;28;20041;-64
2024/01/03 10:40:24;;;;;;;29.17;5.70;;;;;;;;;;5029521;28;20049;-64
2024/01/03 10:42:52;;;;;;;24.07;5.20;;;;;;;;;;5028505;28;20042;-63
2024/01/03 10:45:18;;;;;;;20.73;4.53;;;;;;;;;;5027161;28;20602;-64
2024/01/03 10:47:44;;;;;;;22.57;3.93;;;;;;;;;;5028844;28;20049;-63
2024/01/03 10:50:11;;;;;;;30.87;6.90;;;;;;;;;;5029741;28;20191;-63
2024/01/03 10:52:37;;;;;;;24.17;4.73;;;;;;;;;;5029441;28;20071;-63
2024/01/03 10:55:08;;;;;;;26.63;5.43;;;;;;;;;;5028307;28;20037;-63
2024/01/03 10:57:35;;;;;;;36.23;6.33;;;;;;;;;;5029024;28;20041;-63
2024/01/03 11:00:12;;;;;;;24.57;5.53;;;;;;;;;;5029523;28;20051;-63
2024/01/03 11:02:40;;;;;;;31.73;5.60;;;;;;;;;;5029527;28;20049;-63
2024/01/03 11:05:30;;;;;;;27.70;4.77;;;;;;;;;;5028335;28;20503;-63
2024/01/03 11:07:59;;;;;;;22.80;4.50;;;;;;;;;;5027971;28;20411;-64
2024/01/03 11:10:55;;;;;;;30.73;5.07;;;;;;;;;;5028100;28;20053;-65
2024/01/03 11:13:26;;;;;;;46.50;6.37;;;;;;;;;;5022252;28;20457;-65
2024/01/03 11:15:53;;;;;;;25.63;4.87;;;;;;;;;;5029566;28;20052;-65
2024/01/03 11:18:52;;;;;;;29.17;4.83;;;;;;;;;;5028284;28;20518;-65
2024/01/03 11:21:26;;;;;;;29.20;3.93;;;;;;;;;;5001779;28;20064;-64
2024/01/03 11:23:52;;;;;;;22.90;4.10;;;;;;;;;;5027708;28;20179;-65
2024/01/03 11:26:18;;;;;;;22.47;3.40;;;;;;;;;;5028424;28;20076;-65
2024/01/03 11:28:50;;;;;;;16.33;3.23;;;;;;;;;;5028961;28;20323;-64
2024/01/03 11:31:35;;;;;;;16.33;3.23;;;;;;;;;;5028347;28;20049;-65
2024/01/03 11:34:01;;;;;;;28.30;3.67;;;;;;;;;;5027002;28;20280;-64
2024/01/03 11:36:47;;;;;;;19.87;3.07;;;;;;;;;;5028153;28;20586;-64
2024/01/03 11:39:32;;;;;;;21.53;3.40;;;;;;;;;;5021166;28;20053;-64
2024/01/03 11:41:58;;;;;;;22.30;3.77;;;;;;;;;;5028639;28;20045;-64
2024/01/03 11:44:25;;;;;;;33.87;4.67;;;;;;;;;;5029248;28;20111;-64
2024/01/03 11:46:57;;;;;;;30.87;4.17;;;;;;;;;;5024992;28;20533;-65
2024/01/03 11:49:24;;;;;;;22.20;4.78;;;;;;;;;;5028830;28;20526;-64
2024/01/03 11:51:50;;;;;;;19.73;3.43;;;;;;;;;;5028177;28;20045;-64
2024/01/03 11:54:16;;;;;;;26.20;3.77;;;;;;;;;;5028301;28;20365;-65
2024/01/03 11:56:42;;;;;;;21.47;3.50;;;;;;;;;;5025262;28;20264;-66
2024/01/03 11:59:08;;;;;;;29.27;3.93;;;;;;;;;;5029077;28;20838;-65
2024/01/03 12:01:34;;;;;;;27.77;3.67;;;;;;;;;;5027269;28;20033;-65
2024/01/03 12:04:10;;;;;;;16.00;2.80;;;;;;;;;;5027959;28;20056;-66
2024/01/03 12:06:37;;;;;;;21.83;4.23;;;;;;;;;;5024778;28;20052;-65
2024/01/03 12:09:04;;;;;;;19.90;3.00;;;;;;;;;;5026176;28;20401;-66
2024/01/03 12:11:30;;;;;;;25.40;4.23;;;;;;;;;;5028229;28;20406;-65
2024/01/03 12:13:56;;;;;;;21.97;3.50;;;;;;;;;;5026464;28;20044;-65
2024/01/03 12:16:23;;;;;;;19.13;3.07;;;;;;;;;;5027476;28;20052;-65
2024/01/03 12:18:54;;;;;;;16.33;2.93;;;;;;;;;;5025885;28;20060;-65
2024/01/03 12:21:21;;;;;;;25.43;4.30;;;;;;;;;;5024455;28;20580;-65
2024/01/03 12:23:54;;;;;;;27.80;3.97;;;;;;;;;;5026131;28;20380;-66
2024/01/03 12:26:21;;;;;;;20.50;2.92;;;;;;;;;;5024190;28;20076;-65
2024/01/03 12:28:47;;;;;;;19.90;3.73;;;;;;;;;;5025275;28;20037;-66
2024/01/03 12:31:19;;;;;;;21.27;3.70;;;;;;;;;;5026862;28;20053;-66
2024/01/03 12:33:45;;;;;;;20.47;3.90;;;;;;;;;;5027865;28;20099;-66
2024/01/03 12:36:12;;;;;;;19.97;3.20;;;;;;;;;;5027956;28;20050;-66
2024/01/03 12:38:40;;;;;;;28.20;4.13;;;;;;;;;;5027694;28;20085;-66
2024/01/03 12:41:06;;;;;;;18.03;2.93;;;;;;;;;;5025130;28;20388;-66
2024/01/03 12:43:33;;;;;;;14.80;2.83;;;;;;;;;;5025244;28;20124;-65
2024/01/03 12:46:05;;;;;;;18.40;3.70;;;;;;;;;;5027666;28;20053;-66
2024/01/03 12:48:31;;;;;;;16.60;3.10;;;;;;;;;;5026141;28;20131;-65
2024/01/03 12:50:57;;;;;;;16.13;2.57;;;;;;;;;;5027068;28;20477;-65
2024/01/03 12:53:23;;;;;;;17.93;3.00;;;;;;;;;;5027030;28;20496;-66
2024/01/03 12:55:49;;;;;;;20.93;2.70;;;;;;;;;;5025901;28;20058;-65
2024/01/03 12:58:15;;;;;;;16.63;2.87;;;;;;;;;;5031844;28;20052;-65
2024/01/03 13:00:41;;;;;;;20.30;3.90;;;;;;;;;;5029133;28;20056;-65
2024/01/03 13:03:07;;;;;;;22.63;3.47;;;;;;;;;;5025741;28;20083;-65
2024/01/03 13:05:33;;;;;;;20.17;3.07;;;;;;;;;;5026021;28;20053;-66
2024/01/03 13:07:59;;;;;;;21.47;2.97;;;;;;;;;;5027348;28;20045;-65
2024/01/03 13:10:27;;;;;;;18.83;2.87;;;;;;;;;;5026514;28;20483;-65
2024/01/03 13:12:53;;;;;;;24.87;2.90;;;;;;;;;;5027474;28;20072;-65
2024/01/03 13:15:20;;;;;;;26.23;2.93;;;;;;;;;;5026500;28;20045;-66
2024/01/03 13:17:46;;;;;;;24.40;2.70;;;;;;;;;;5026558;28;20046;-66
2024/01/03 13:20:15;;;;;;;21.23;2.97;;;;;;;;;;5027008;28;20042;-66
2024/01/03 13:22:44;;;;;;;21.67;2.83;;;;;;;;;;5027532;28;20454;-66
2024/01/03 13:25:10;;;;;;;24.50;3.53;;;;;;;;;;5026744;28;20050;-66
2024/01/03 13:27:36;;;;;;;59.37;4.97;;;;;;;;;;5027388;28;20042;-66
2024/01/03 13:30:02;;;;;;;26.70;4.20;;;;;;;;;;5027073;28;20059;-67
2024/01/03 13:32:28;;;;;;;41.73;4.57;;;;;;;;;;5022003;28;20578;-67
2024/01/03 13:34:54;;;;;;;23.90;5.00;;;;;;;;;;5026423;28;20065;-66
2024/01/03 13:37:20;;;;;;;33.73;4.80;;;;;;;;;;5024748;28;20058;-67
2024/01/03 13:39:46;;;;;;;27.77;3.47;;;;;;;;;;5026272;28;20057;-67
2024/01/03 13:42:12;;;;;;;24.30;3.73;;;;;;;;;;5023231;28;20053;-66
2024/01/03 13:44:38;;;;;;;20.07;4.20;;;;;;;;;;5023715;28;20069;-66
2024/01/03 13:47:04;;;;;;;17.93;3.57;;;;;;;;;;5025426;28;20064;-66
2024/01/03 13:49:31;;;;;;;25.13;4.10;;;;;;;;;;5025558;28;20096;-65
2024/01/03 13:51:59;;;;;;;21.47;6.23;;;;;;;;;;5025908;28;20046;-66
2024/01/03 13:54:25;;;;;;;20.77;3.50;;;;;;;;;;5030970;28;20416;-66
2024/01/03 13:56:51;;;;;;;29.63;5.17;;;;;;;;;;5029011;28;20550;-66
2024/01/03 13:59:17;;;;;;;22.87;4.60;;;;;;;;;;5031134;28;20049;-65
2024/01/03 14:01:46;;;;;;;24.50;4.03;;;;;;;;;;5030480;28;20450;-65
2024/01/03 14:04:14;;;;;;;23.80;3.23;;;;;;;;;;5029836;28;20516;-66
2024/01/03 14:06:44;;;;;;;21.00;3.33;;;;;;;;;;5027792;28;20677;-65
2024/01/03 14:09:10;;;;;;;34.93;5.97;;;;;;;;;;5028537;28;20045;-65
2024/01/03 14:11:36;;;;;;;34.47;4.77;;;;;;;;;;5029188;28;20569;-65
2024/01/03 14:14:02;;;;;;;28.33;4.00;;;;;;;;;;5028661;28;20368;-65
2024/01/03 14:16:28;;;;;;;30.23;4.20;;;;;;;;;;5029824;28;20041;-65
2024/01/03 14:18:54;;;;;;;37.17;4.60;;;;;;;;;;5028890;28;20038;-65
2024/01/03 14:21:20;;;;;;;25.80;3.67;;;;;;;;;;5028930;28;20056;-65
2024/01/03 14:23:48;;;;;;;32.47;5.37;;;;;;;;;;5030418;28;20511;-65
2024/01/03 14:26:14;;;;;;;31.13;4.73;;;;;;;;;;5030449;28;20045;-65
2024/01/03 14:28:40;;;;;;;28.30;5.20;;;;;;;;;;5028590;28;20046;-65
2024/01/03 14:31:07;;;;;;;35.27;5.03;;;;;;;;;;5027445;28;20404;-65